sensor_id;sensor_type;location;lat;lon;timestamp;temperature;humidity
75719;DHT22;64340;48.534;-3.036;2024-03-08T00:00:10;17.10;58.00
75719;DHT22;64340;48.534;-3.036;2024-03-08T00:02:38;17.00;58.00
75719;DHT22;64340;48.534;-3.036;2024-03-08T00:05:05;17.10;58.00
75719;DHT22;64340;48.534;-3.036;2024-03-08T00:07:31;17.00;58.10
75719;DHT22;64340;48.534;-3.036;2024-03-08T00:09:58;17.00;58.00
75719;DHT22;64340;48.534;-3.036;2024-03-08T00:12:24;17.00;58.00
75719;DHT22;64340;48.534;-3.036;2024-03-08T00:14:52;17.00;58.00
75719;DHT22;64340;48.534;-3.036;2024-03-08T00:17:18;17.00;57.90
75719;DHT22;64340;48.534;-3.036;2024-03-08T00:19:44;17.00;58.00
75719;DHT22;64340;48.534;-3.036;2024-03-08T00:22:10;17.00;57.90
75719;DHT22;64340;48.534;-3.036;2024-03-08T00:24:37;17.00;58.20
75719;DHT22;64340;48.534;-3.036;2024-03-08T00:27:02;17.00;58.20
75719;DHT22;64340;48.534;-3.036;2024-03-08T00:29:30;17.10;58.20
75719;DHT22;64340;48.534;-3.036;2024-03-08T00:31:55;17.00;58.10
75719;DHT22;64340;48.534;-3.036;2024-03-08T00:34:21;17.10;58.00
75719;DHT22;64340;48.534;-3.036;2024-03-08T00:36:47;17.00;58.00
75719;DHT22;64340;48.534;-3.036;2024-03-08T00:39:14;17.10;58.00
75719;DHT22;64340;48.534;-3.036;2024-03-08T00:41:40;17.00;58.50
75719;DHT22;64340;48.534;-3.036;2024-03-08T00:44:05;17.00;58.40
75719;DHT22;64340;48.534;-3.036;2024-03-08T00:46:31;17.10;58.20
75719;DHT22;64340;48.534;-3.036;2024-03-08T00:48:57;17.00;58.30
75719;DHT22;64340;48.534;-3.036;2024-03-08T00:51:22;17.00;58.30
75719;DHT22;64340;48.534;-3.036;2024-03-08T00:53:48;17.00;58.50
75719;DHT22;64340;48.534;-3.036;2024-03-08T00:56:14;16.90;58.50
75719;DHT22;64340;48.534;-3.036;2024-03-08T00:58:40;16.90;58.30
75719;DHT22;64340;48.534;-3.036;2024-03-08T01:01:05;17.00;58.10
75719;DHT22;64340;48.534;-3.036;2024-03-08T01:03:31;17.00;57.80
75719;DHT22;64340;48.534;-3.036;2024-03-08T01:05:57;16.90;57.80
75719;DHT22;64340;48.534;-3.036;2024-03-08T01:08:25;16.90;57.60
75719;DHT22;64340;48.534;-3.036;2024-03-08T01:10:50;16.90;57.40
75719;DHT22;64340;48.534;-3.036;2024-03-08T01:13:16;16.90;57.50
75719;DHT22;64340;48.534;-3.036;2024-03-08T01:15:42;16.80;57.60
75719;DHT22;64340;48.534;-3.036;2024-03-08T01:18:08;16.80;57.50
75719;DHT22;64340;48.534;-3.036;2024-03-08T01:20:33;16.80;57.50
75719;DHT22;64340;48.534;-3.036;2024-03-08T01:22:59;16.70;57.50
75719;DHT22;64340;48.534;-3.036;2024-03-08T01:25:25;16.70;57.60
75719;DHT22;64340;48.534;-3.036;2024-03-08T01:27:50;16.70;57.50
75719;DHT22;64340;48.534;-3.036;2024-03-08T01:30:19;16.70;57.50
75719;DHT22;64340;48.534;-3.036;2024-03-08T01:32:45;16.70;57.40
75719;DHT22;64340;48.534;-3.036;2024-03-08T01:35:10;16.60;57.40
75719;DHT22;64340;48.534;-3.036;2024-03-08T01:37:36;16.60;57.50
75719;DHT22;64340;48.534;-3.036;2024-03-08T01:40:03;16.60;57.30
75719;DHT22;64340;48.534;-3.036;2024-03-08T01:42:29;16.60;57.50
75719;DHT22;64340;48.534;-3.036;2024-03-08T01:44:55;16.60;57.50
75719;DHT22;64340;48.534;-3.036;2024-03-08T01:47:21;16.60;57.50
75719;DHT22;64340;48.534;-3.036;2024-03-08T01:49:50;16.60;57.50
75719;DHT22;64340;48.534;-3.036;2024-03-08T01:52:17;16.50;57.40
75719;DHT22;64340;48.534;-3.036;2024-03-08T01:54:45;16.50;57.50
75719;DHT22;64340;48.534;-3.036;2024-03-08T01:57:11;16.50;57.50
75719;DHT22;64340;48.534;-3.036;2024-03-08T01:59:37;16.40;57.60
75719;DHT22;64340;48.534;-3.036;2024-03-08T02:02:04;16.40;57.40
75719;DHT22;64340;48.534;-3.036;2024-03-08T02:04:31;16.50;57.00
75719;DHT22;64340;48.534;-3.036;2024-03-08T02:06:57;16.50;57.40
75719;DHT22;64340;48.534;-3.036;2024-03-08T02:09:26;16.40;57.50
75719;DHT22;64340;48.534;-3.036;2024-03-08T02:11:51;16.40;57.40
75719;DHT22;64340;48.534;-3.036;2024-03-08T02:14:20;16.50;57.40
75719;DHT22;64340;48.534;-3.036;2024-03-08T02:16:45;16.50;57.40
75719;DHT22;64340;48.534;-3.036;2024-03-08T02:19:11;16.40;57.30
75719;DHT22;64340;48.534;-3.036;2024-03-08T02:21:37;16.40;57.30
75719;DHT22;64340;48.534;-3.036;2024-03-08T02:24:04;16.40;57.30
75719;DHT22;64340;48.534;-3.036;2024-03-08T02:26:30;16.40;56.80
75719;DHT22;64340;48.534;-3.036;2024-03-08T02:28:56;16.40;56.80
75719;DHT22;64340;48.534;-3.036;2024-03-08T02:31:21;16.40;56.80
75719;DHT22;64340;48.534;-3.036;2024-03-08T02:33:47;16.30;57.00
75719;DHT22;64340;48.534;-3.036;2024-03-08T02:36:13;16.20;56.80
75719;DHT22;64340;48.534;-3.036;2024-03-08T02:38:39;16.20;56.60
75719;DHT22;64340;48.534;-3.036;2024-03-08T02:41:07;16.20;56.80
75719;DHT22;64340;48.534;-3.036;2024-03-08T02:43:34;16.20;56.70
75719;DHT22;64340;48.534;-3.036;2024-03-08T02:46:00;16.10;56.90
75719;DHT22;64340;48.534;-3.036;2024-03-08T02:48:25;16.20;56.90
75719;DHT22;64340;48.534;-3.036;2024-03-08T02:50:51;16.10;56.90
75719;DHT22;64340;48.534;-3.036;2024-03-08T02:53:17;16.10;56.70
75719;DHT22;64340;48.534;-3.036;2024-03-08T02:55:44;16.10;56.80
75719;DHT22;64340;48.534;-3.036;2024-03-08T02:58:10;16.00;56.70
75719;DHT22;64340;48.534;-3.036;2024-03-08T03:00:36;16.00;56.80
75719;DHT22;64340;48.534;-3.036;2024-03-08T03:03:03;16.00;56.70
75719;DHT22;64340;48.534;-3.036;2024-03-08T03:05:29;16.00;56.70
75719;DHT22;64340;48.534;-3.036;2024-03-08T03:07:56;16.00;57.00
75719;DHT22;64340;48.534;-3.036;2024-03-08T03:10:22;16.00;56.80
75719;DHT22;64340;48.534;-3.036;2024-03-08T03:12:48;16.00;56.60
75719;DHT22;64340;48.534;-3.036;2024-03-08T03:15:14;16.00;56.60
75719;DHT22;64340;48.534;-3.036;2024-03-08T03:17:40;16.00;56.70
75719;DHT22;64340;48.534;-3.036;2024-03-08T03:20:07;15.90;56.80
75719;DHT22;64340;48.534;-3.036;2024-03-08T03:22:38;15.80;56.80
75719;DHT22;64340;48.534;-3.036;2024-03-08T03:25:04;15.80;56.80
75719;DHT22;64340;48.534;-3.036;2024-03-08T03:27:32;15.80;56.90
75719;DHT22;64340;48.534;-3.036;2024-03-08T03:29:58;15.80;56.70
75719;DHT22;64340;48.534;-3.036;2024-03-08T03:32:24;15.80;56.80
75719;DHT22;64340;48.534;-3.036;2024-03-08T03:34:51;15.80;56.70
75719;DHT22;64340;48.534;-3.036;2024-03-08T03:37:20;15.80;56.80
75719;DHT22;64340;48.534;-3.036;2024-03-08T03:39:46;15.80;56.80
75719;DHT22;64340;48.534;-3.036;2024-03-08T03:42:17;15.80;56.80
75719;DHT22;64340;48.534;-3.036;2024-03-08T03:44:47;15.80;56.80
75719;DHT22;64340;48.534;-3.036;2024-03-08T03:47:14;15.80;56.70
75719;DHT22;64340;48.534;-3.036;2024-03-08T03:49:43;15.80;56.80
75719;DHT22;64340;48.534;-3.036;2024-03-08T03:52:09;15.80;56.80
75719;DHT22;64340;48.534;-3.036;2024-03-08T03:54:36;15.80;56.90
75719;DHT22;64340;48.534;-3.036;2024-03-08T03:57:02;15.80;57.00
75719;DHT22;64340;48.534;-3.036;2024-03-08T03:59:28;15.80;56.70
75719;DHT22;64340;48.534;-3.036;2024-03-08T04:01:54;15.80;56.90
75719;DHT22;64340;48.534;-3.036;2024-03-08T04:04:23;15.80;57.10
75719;DHT22;64340;48.534;-3.036;2024-03-08T04:06:50;15.70;56.90
75719;DHT22;64340;48.534;-3.036;2024-03-08T04:09:16;15.70;56.90
75719;DHT22;64340;48.534;-3.036;2024-03-08T04:11:45;15.70;57.00
75719;DHT22;64340;48.534;-3.036;2024-03-08T04:14:10;15.60;56.90
75719;DHT22;64340;48.534;-3.036;2024-03-08T04:16:37;15.60;56.80
75719;DHT22;64340;48.534;-3.036;2024-03-08T04:19:03;15.60;56.90
75719;DHT22;64340;48.534;-3.036;2024-03-08T04:21:32;15.60;56.90
75719;DHT22;64340;48.534;-3.036;2024-03-08T04:23:58;15.60;57.00
75719;DHT22;64340;48.534;-3.036;2024-03-08T04:26:24;15.60;57.00
75719;DHT22;64340;48.534;-3.036;2024-03-08T04:28:51;15.50;57.00
75719;DHT22;64340;48.534;-3.036;2024-03-08T04:31:17;15.50;56.90
75719;DHT22;64340;48.534;-3.036;2024-03-08T04:33:43;15.50;56.90
75719;DHT22;64340;48.534;-3.036;2024-03-08T04:36:09;15.50;56.90
75719;DHT22;64340;48.534;-3.036;2024-03-08T04:38:39;15.50;56.80
75719;DHT22;64340;48.534;-3.036;2024-03-08T04:41:06;15.50;57.00
75719;DHT22;64340;48.534;-3.036;2024-03-08T04:43:33;15.50;56.80
75719;DHT22;64340;48.534;-3.036;2024-03-08T04:45:59;15.50;56.90
75719;DHT22;64340;48.534;-3.036;2024-03-08T04:48:25;15.40;56.80
75719;DHT22;64340;48.534;-3.036;2024-03-08T04:50:53;15.40;56.80
75719;DHT22;64340;48.534;-3.036;2024-03-08T04:53:19;15.40;56.90
75719;DHT22;64340;48.534;-3.036;2024-03-08T04:55:45;15.40;57.00
75719;DHT22;64340;48.534;-3.036;2024-03-08T04:58:11;15.40;56.90
75719;DHT22;64340;48.534;-3.036;2024-03-08T05:00:37;15.30;57.00
75719;DHT22;64340;48.534;-3.036;2024-03-08T05:03:02;15.40;57.10
75719;DHT22;64340;48.534;-3.036;2024-03-08T05:05:29;15.40;57.30
75719;DHT22;64340;48.534;-3.036;2024-03-08T05:07:55;15.30;57.10
75719;DHT22;64340;48.534;-3.036;2024-03-08T05:10:21;15.00;56.50
75719;DHT22;64340;48.534;-3.036;2024-03-08T05:12:47;15.00;57.40
75719;DHT22;64340;48.534;-3.036;2024-03-08T05:15:13;15.10;57.30
75719;DHT22;64340;48.534;-3.036;2024-03-08T05:17:38;15.30;57.30
75719;DHT22;64340;48.534;-3.036;2024-03-08T05:20:06;15.30;57.40
75719;DHT22;64340;48.534;-3.036;2024-03-08T05:22:37;15.30;57.40
75719;DHT22;64340;48.534;-3.036;2024-03-08T05:25:03;15.40;58.00
75719;DHT22;64340;48.534;-3.036;2024-03-08T05:27:29;15.40;57.50
75719;DHT22;64340;48.534;-3.036;2024-03-08T05:29:55;15.40;57.70
75719;DHT22;64340;48.534;-3.036;2024-03-08T05:32:21;15.40;57.70
75719;DHT22;64340;48.534;-3.036;2024-03-08T05:34:46;15.40;58.00
75719;DHT22;64340;48.534;-3.036;2024-03-08T05:37:12;15.30;58.30
75719;DHT22;64340;48.534;-3.036;2024-03-08T05:39:38;15.40;58.30
75719;DHT22;64340;48.534;-3.036;2024-03-08T05:42:04;15.40;58.50
75719;DHT22;64340;48.534;-3.036;2024-03-08T05:44:29;15.40;59.00
75719;DHT22;64340;48.534;-3.036;2024-03-08T05:46:56;15.50;59.10
75719;DHT22;64340;48.534;-3.036;2024-03-08T05:49:22;15.50;59.50
75719;DHT22;64340;48.534;-3.036;2024-03-08T05:51:47;15.40;61.70
75719;DHT22;64340;48.534;-3.036;2024-03-08T05:54:14;15.40;62.80
75719;DHT22;64340;48.534;-3.036;2024-03-08T05:56:40;15.40;62.60
75719;DHT22;64340;48.534;-3.036;2024-03-08T05:59:10;15.20;63.90
75719;DHT22;64340;48.534;-3.036;2024-03-08T06:01:36;15.00;64.70
75719;DHT22;64340;48.534;-3.036;2024-03-08T06:04:03;14.80;64.70
75719;DHT22;64340;48.534;-3.036;2024-03-08T06:06:29;14.70;64.70
75719;DHT22;64340;48.534;-3.036;2024-03-08T06:08:55;14.60;64.50
75719;DHT22;64340;48.534;-3.036;2024-03-08T06:11:24;14.60;63.60
75719;DHT22;64340;48.534;-3.036;2024-03-08T06:13:52;14.70;63.00
75719;DHT22;64340;48.534;-3.036;2024-03-08T06:16:28;14.60;62.70
75719;DHT22;64340;48.534;-3.036;2024-03-08T06:18:57;14.50;62.30
75719;DHT22;64340;48.534;-3.036;2024-03-08T06:21:26;14.40;62.10
75719;DHT22;64340;48.534;-3.036;2024-03-08T06:23:53;14.40;61.80
75719;DHT22;64340;48.534;-3.036;2024-03-08T06:26:21;14.30;61.70
75719;DHT22;64340;48.534;-3.036;2024-03-08T06:28:49;14.30;61.40
75719;DHT22;64340;48.534;-3.036;2024-03-08T06:31:17;14.20;61.10
75719;DHT22;64340;48.534;-3.036;2024-03-08T06:33:43;14.20;60.80
75719;DHT22;64340;48.534;-3.036;2024-03-08T06:36:09;14.20;60.80
75719;DHT22;64340;48.534;-3.036;2024-03-08T06:38:37;14.20;60.60
75719;DHT22;64340;48.534;-3.036;2024-03-08T06:41:10;14.20;60.40
75719;DHT22;64340;48.534;-3.036;2024-03-08T06:43:45;14.20;60.40
75719;DHT22;64340;48.534;-3.036;2024-03-08T06:46:12;14.40;60.10
75719;DHT22;64340;48.534;-3.036;2024-03-08T06:48:39;14.70;59.40
75719;DHT22;64340;48.534;-3.036;2024-03-08T06:51:04;14.80;59.10
75719;DHT22;64340;48.534;-3.036;2024-03-08T06:53:31;14.80;59.00
75719;DHT22;64340;48.534;-3.036;2024-03-08T06:55:58;14.90;58.90
75719;DHT22;64340;48.534;-3.036;2024-03-08T06:58:24;14.90;58.90
75719;DHT22;64340;48.534;-3.036;2024-03-08T07:00:50;14.90;59.00
75719;DHT22;64340;48.534;-3.036;2024-03-08T07:03:18;15.00;59.00
75719;DHT22;64340;48.534;-3.036;2024-03-08T07:05:44;15.00;59.10
75719;DHT22;64340;48.534;-3.036;2024-03-08T07:08:10;15.00;59.10
75719;DHT22;64340;48.534;-3.036;2024-03-08T07:10:38;15.00;59.20
75719;DHT22;64340;48.534;-3.036;2024-03-08T07:13:07;15.00;59.30
75719;DHT22;64340;48.534;-3.036;2024-03-08T07:15:33;15.00;59.30
75719;DHT22;64340;48.534;-3.036;2024-03-08T07:17:59;15.00;59.40
75719;DHT22;64340;48.534;-3.036;2024-03-08T07:20:25;14.90;59.40
75719;DHT22;64340;48.534;-3.036;2024-03-08T07:22:51;15.00;59.40
75719;DHT22;64340;48.534;-3.036;2024-03-08T07:25:17;15.00;59.30
75719;DHT22;64340;48.534;-3.036;2024-03-08T07:27:43;15.00;59.30
75719;DHT22;64340;48.534;-3.036;2024-03-08T07:30:09;15.00;59.40
75719;DHT22;64340;48.534;-3.036;2024-03-08T07:32:37;15.00;59.50
75719;DHT22;64340;48.534;-3.036;2024-03-08T07:35:04;14.90;59.50
75719;DHT22;64340;48.534;-3.036;2024-03-08T07:37:29;15.00;59.40
75719;DHT22;64340;48.534;-3.036;2024-03-08T07:39:57;15.00;59.40
75719;DHT22;64340;48.534;-3.036;2024-03-08T07:42:23;15.00;59.30
75719;DHT22;64340;48.534;-3.036;2024-03-08T07:44:49;15.00;59.30
75719;DHT22;64340;48.534;-3.036;2024-03-08T07:47:15;14.90;59.40
75719;DHT22;64340;48.534;-3.036;2024-03-08T07:49:43;14.90;59.40
75719;DHT22;64340;48.534;-3.036;2024-03-08T07:52:09;15.00;59.30
75719;DHT22;64340;48.534;-3.036;2024-03-08T07:54:41;15.00;59.30
75719;DHT22;64340;48.534;-3.036;2024-03-08T07:57:07;15.00;59.20
75719;DHT22;64340;48.534;-3.036;2024-03-08T07:59:32;15.00;59.10
75719;DHT22;64340;48.534;-3.036;2024-03-08T08:01:58;15.00;59.30
75719;DHT22;64340;48.534;-3.036;2024-03-08T08:04:25;15.00;59.30
75719;DHT22;64340;48.534;-3.036;2024-03-08T08:06:52;14.90;59.40
75719;DHT22;64340;48.534;-3.036;2024-03-08T08:09:18;15.00;59.20
75719;DHT22;64340;48.534;-3.036;2024-03-08T08:11:54;15.00;59.30
75719;DHT22;64340;48.534;-3.036;2024-03-08T08:14:20;15.00;59.30
75719;DHT22;64340;48.534;-3.036;2024-03-08T08:16:47;15.00;59.30
75719;DHT22;64340;48.534;-3.036;2024-03-08T08:19:14;15.00;59.20
75719;DHT22;64340;48.534;-3.036;2024-03-08T08:21:41;15.00;59.10
75719;DHT22;64340;48.534;-3.036;2024-03-08T08:24:07;15.00;59.10
75719;DHT22;64340;48.534;-3.036;2024-03-08T08:26:32;15.00;59.00
75719;DHT22;64340;48.534;-3.036;2024-03-08T08:28:59;15.00;59.00
75719;DHT22;64340;48.534;-3.036;2024-03-08T08:31:25;15.00;59.10
75719;DHT22;64340;48.534;-3.036;2024-03-08T08:33:52;15.00;59.10
75719;DHT22;64340;48.534;-3.036;2024-03-08T08:36:27;15.00;59.00
75719;DHT22;64340;48.534;-3.036;2024-03-08T08:38:55;15.00;59.00
75719;DHT22;64340;48.534;-3.036;2024-03-08T08:41:23;15.00;58.90
75719;DHT22;64340;48.534;-3.036;2024-03-08T08:43:49;15.10;58.90
75719;DHT22;64340;48.534;-3.036;2024-03-08T08:46:18;15.10;58.70
75719;DHT22;64340;48.534;-3.036;2024-03-08T08:48:44;15.10;58.70
75719;DHT22;64340;48.534;-3.036;2024-03-08T08:51:14;15.10;58.70
75719;DHT22;64340;48.534;-3.036;2024-03-08T08:53:43;15.10;58.70
75719;DHT22;64340;48.534;-3.036;2024-03-08T08:56:11;15.00;58.70
75719;DHT22;64340;48.534;-3.036;2024-03-08T08:58:39;15.10;58.70
75719;DHT22;64340;48.534;-3.036;2024-03-08T09:01:06;15.10;58.70
75719;DHT22;64340;48.534;-3.036;2024-03-08T09:03:33;15.00;58.80
75719;DHT22;64340;48.534;-3.036;2024-03-08T09:06:00;15.00;58.70
75719;DHT22;64340;48.534;-3.036;2024-03-08T09:08:28;15.00;58.80
75719;DHT22;64340;48.534;-3.036;2024-03-08T09:10:54;15.00;58.80
75719;DHT22;64340;48.534;-3.036;2024-03-08T09:13:20;15.00;58.80
75719;DHT22;64340;48.534;-3.036;2024-03-08T09:15:45;15.00;58.70
75719;DHT22;64340;48.534;-3.036;2024-03-08T09:18:11;15.10;58.50
75719;DHT22;64340;48.534;-3.036;2024-03-08T09:20:37;15.10;58.50
75719;DHT22;64340;48.534;-3.036;2024-03-08T09:23:03;15.10;58.40
75719;DHT22;64340;48.534;-3.036;2024-03-08T09:25:29;15.00;58.50
75719;DHT22;64340;48.534;-3.036;2024-03-08T09:27:55;15.00;58.50
75719;DHT22;64340;48.534;-3.036;2024-03-08T09:30:21;15.10;58.40
75719;DHT22;64340;48.534;-3.036;2024-03-08T09:32:47;15.10;58.40
75719;DHT22;64340;48.534;-3.036;2024-03-08T09:35:13;15.10;58.50
75719;DHT22;64340;48.534;-3.036;2024-03-08T09:37:39;15.00;58.60
75719;DHT22;64340;48.534;-3.036;2024-03-08T09:40:05;15.10;58.60
75719;DHT22;64340;48.534;-3.036;2024-03-08T09:42:37;15.10;58.50
75719;DHT22;64340;48.534;-3.036;2024-03-08T09:45:10;15.20;58.40
75719;DHT22;64340;48.534;-3.036;2024-03-08T09:47:39;15.10;58.50
75719;DHT22;64340;48.534;-3.036;2024-03-08T09:50:07;15.20;58.30
75719;DHT22;64340;48.534;-3.036;2024-03-08T09:52:37;15.30;58.20
75719;DHT22;64340;48.534;-3.036;2024-03-08T09:55:06;15.30;58.20
75719;DHT22;64340;48.534;-3.036;2024-03-08T09:57:36;15.30;58.20
75719;DHT22;64340;48.534;-3.036;2024-03-08T10:00:04;15.30;58.30
75719;DHT22;64340;48.534;-3.036;2024-03-08T10:02:46;15.30;58.40
75719;DHT22;64340;48.534;-3.036;2024-03-08T10:05:13;15.20;58.50
75719;DHT22;64340;48.534;-3.036;2024-03-08T10:07:39;15.30;58.40
75719;DHT22;64340;48.534;-3.036;2024-03-08T10:10:05;15.30;58.30
75719;DHT22;64340;48.534;-3.036;2024-03-08T10:12:36;15.30;58.20
75719;DHT22;64340;48.534;-3.036;2024-03-08T10:15:05;15.30;58.20
75719;DHT22;64340;48.534;-3.036;2024-03-08T10:17:31;15.30;58.20
75719;DHT22;64340;48.534;-3.036;2024-03-08T10:19:58;15.20;58.30
75719;DHT22;64340;48.534;-3.036;2024-03-08T10:22:25;15.20;58.30
75719;DHT22;64340;48.534;-3.036;2024-03-08T10:24:51;15.20;58.30
75719;DHT22;64340;48.534;-3.036;2024-03-08T10:27:17;15.30;58.30
75719;DHT22;64340;48.534;-3.036;2024-03-08T10:29:46;15.30;58.30
75719;DHT22;64340;48.534;-3.036;2024-03-08T10:32:11;15.20;58.30
75719;DHT22;64340;48.534;-3.036;2024-03-08T10:34:37;15.30;58.30
75719;DHT22;64340;48.534;-3.036;2024-03-08T10:37:08;15.30;58.30
75719;DHT22;64340;48.534;-3.036;2024-03-08T10:39:38;15.30;58.30
75719;DHT22;64340;48.534;-3.036;2024-03-08T10:42:11;15.30;58.10
75719;DHT22;64340;48.534;-3.036;2024-03-08T10:45:11;15.30;58.20
75719;DHT22;64340;48.534;-3.036;2024-03-08T10:47:41;15.30;58.20
75719;DHT22;64340;48.534;-3.036;2024-03-08T10:52:41;15.30;58.30
75719;DHT22;64340;48.534;-3.036;2024-03-08T10:55:09;15.30;58.30
75719;DHT22;64340;48.534;-3.036;2024-03-08T10:57:39;15.20;57.00
75719;DHT22;64340;48.534;-3.036;2024-03-08T11:00:07;14.90;57.10
75719;DHT22;64340;48.534;-3.036;2024-03-08T11:02:36;14.70;56.70
75719;DHT22;64340;48.534;-3.036;2024-03-08T11:05:03;14.50;57.10
75719;DHT22;64340;48.534;-3.036;2024-03-08T11:07:34;14.40;58.00
75719;DHT22;64340;48.534;-3.036;2024-03-08T11:10:03;14.70;57.90
75719;DHT22;64340;48.534;-3.036;2024-03-08T11:12:37;15.00;57.50
75719;DHT22;64340;48.534;-3.036;2024-03-08T11:15:10;15.00;57.90
75719;DHT22;64340;48.534;-3.036;2024-03-08T11:20:11;15.30;58.20
75719;DHT22;64340;48.534;-3.036;2024-03-08T11:22:59;15.40;57.90
75719;DHT22;64340;48.534;-3.036;2024-03-08T11:25:37;15.40;58.30
75719;DHT22;64340;48.534;-3.036;2024-03-08T11:28:27;15.50;58.30
75719;DHT22;64340;48.534;-3.036;2024-03-08T11:33:28;14.70;56.80
75719;DHT22;64340;48.534;-3.036;2024-03-08T11:36:20;14.40;57.30
75719;DHT22;64340;48.534;-3.036;2024-03-08T11:38:47;14.30;58.00
75719;DHT22;64340;48.534;-3.036;2024-03-08T11:41:22;14.10;57.50
75719;DHT22;64340;48.534;-3.036;2024-03-08T11:43:50;14.00;57.80
75719;DHT22;64340;48.534;-3.036;2024-03-08T11:46:26;14.10;58.20
75719;DHT22;64340;48.534;-3.036;2024-03-08T11:48:54;14.00;58.00
75719;DHT22;64340;48.534;-3.036;2024-03-08T11:51:21;13.90;57.90
75719;DHT22;64340;48.534;-3.036;2024-03-08T11:53:49;13.90;58.20
75719;DHT22;64340;48.534;-3.036;2024-03-08T11:56:16;14.00;58.40
75719;DHT22;64340;48.534;-3.036;2024-03-08T11:58:42;14.50;57.70
75719;DHT22;64340;48.534;-3.036;2024-03-08T12:01:17;14.80;57.30
75719;DHT22;64340;48.534;-3.036;2024-03-08T12:03:43;15.00;57.20
75719;DHT22;64340;48.534;-3.036;2024-03-08T12:06:10;15.10;57.10
75719;DHT22;64340;48.534;-3.036;2024-03-08T12:08:36;15.30;57.20
75719;DHT22;64340;48.534;-3.036;2024-03-08T12:11:04;15.40;57.00
75719;DHT22;64340;48.534;-3.036;2024-03-08T12:13:35;15.50;56.80
75719;DHT22;64340;48.534;-3.036;2024-03-08T12:16:05;15.60;56.80
75719;DHT22;64340;48.534;-3.036;2024-03-08T12:18:37;15.60;57.00
75719;DHT22;64340;48.534;-3.036;2024-03-08T12:21:12;15.80;57.00
75719;DHT22;64340;48.534;-3.036;2024-03-08T12:23:46;15.80;57.00
75719;DHT22;64340;48.534;-3.036;2024-03-08T12:26:32;15.80;57.20
75719;DHT22;64340;48.534;-3.036;2024-03-08T12:29:37;16.00;57.20
75719;DHT22;64340;48.534;-3.036;2024-03-08T12:32:05;16.00;57.60
75719;DHT22;64340;48.534;-3.036;2024-03-08T12:34:33;16.00;57.90
75719;DHT22;64340;48.534;-3.036;2024-03-08T12:37:00;16.10;58.00
75719;DHT22;64340;48.534;-3.036;2024-03-08T12:39:26;16.10;58.00
75719;DHT22;64340;48.534;-3.036;2024-03-08T12:41:55;16.20;57.90
75719;DHT22;64340;48.534;-3.036;2024-03-08T12:44:24;16.20;58.40
75719;DHT22;64340;48.534;-3.036;2024-03-08T12:46:51;16.20;58.30
75719;DHT22;64340;48.534;-3.036;2024-03-08T12:49:22;16.20;58.40
75719;DHT22;64340;48.534;-3.036;2024-03-08T12:51:50;16.20;58.50
75719;DHT22;64340;48.534;-3.036;2024-03-08T12:54:19;16.40;58.30
75719;DHT22;64340;48.534;-3.036;2024-03-08T12:56:49;16.40;58.30
75719;DHT22;64340;48.534;-3.036;2024-03-08T12:59:18;16.50;58.20
75719;DHT22;64340;48.534;-3.036;2024-03-08T13:01:47;16.60;58.00
75719;DHT22;64340;48.534;-3.036;2024-03-08T13:04:13;16.50;58.30
75719;DHT22;64340;48.534;-3.036;2024-03-08T13:06:40;16.50;58.30
75719;DHT22;64340;48.534;-3.036;2024-03-08T13:09:06;16.50;58.30
75719;DHT22;64340;48.534;-3.036;2024-03-08T13:11:32;16.50;58.30
75719;DHT22;64340;48.534;-3.036;2024-03-08T13:14:03;16.50;58.40
75719;DHT22;64340;48.534;-3.036;2024-03-08T13:16:30;16.50;58.50
75719;DHT22;64340;48.534;-3.036;2024-03-08T13:18:57;16.50;58.60
75719;DHT22;64340;48.534;-3.036;2024-03-08T13:21:23;16.50;58.50
75719;DHT22;64340;48.534;-3.036;2024-03-08T13:23:50;16.50;58.50
75719;DHT22;64340;48.534;-3.036;2024-03-08T13:26:18;16.50;58.50
75719;DHT22;64340;48.534;-3.036;2024-03-08T13:28:48;16.50;58.50
75719;DHT22;64340;48.534;-3.036;2024-03-08T13:31:22;16.60;58.30
75719;DHT22;64340;48.534;-3.036;2024-03-08T13:33:52;16.60;58.30
75719;DHT22;64340;48.534;-3.036;2024-03-08T13:36:23;16.60;58.30
75719;DHT22;64340;48.534;-3.036;2024-03-08T13:38:54;16.70;58.20
75719;DHT22;64340;48.534;-3.036;2024-03-08T13:41:21;16.70;58.20
75719;DHT22;64340;48.534;-3.036;2024-03-08T13:43:52;16.70;58.10
75719;DHT22;64340;48.534;-3.036;2024-03-08T13:46:19;16.70;58.10
75719;DHT22;64340;48.534;-3.036;2024-03-08T13:48:45;16.80;58.10
75719;DHT22;64340;48.534;-3.036;2024-03-08T13:51:11;16.80;58.10
75719;DHT22;64340;48.534;-3.036;2024-03-08T13:53:42;16.80;58.10
75719;DHT22;64340;48.534;-3.036;2024-03-08T13:56:08;16.80;58.10
75719;DHT22;64340;48.534;-3.036;2024-03-08T13:58:37;16.80;58.00
75719;DHT22;64340;48.534;-3.036;2024-03-08T14:01:06;16.90;58.10
75719;DHT22;64340;48.534;-3.036;2024-03-08T14:03:37;16.80;57.80
75719;DHT22;64340;48.534;-3.036;2024-03-08T14:06:03;16.80;57.90
75719;DHT22;64340;48.534;-3.036;2024-03-08T14:08:29;16.80;58.10
75719;DHT22;64340;48.534;-3.036;2024-03-08T14:10:58;16.80;58.20
75719;DHT22;64340;48.534;-3.036;2024-03-08T14:13:24;16.90;58.20
75719;DHT22;64340;48.534;-3.036;2024-03-08T14:15:50;16.90;58.10
75719;DHT22;64340;48.534;-3.036;2024-03-08T14:18:17;16.90;58.10
75719;DHT22;64340;48.534;-3.036;2024-03-08T14:20:46;17.00;58.00
75719;DHT22;64340;48.534;-3.036;2024-03-08T14:23:13;17.00;57.90
75719;DHT22;64340;48.534;-3.036;2024-03-08T14:25:38;17.20;57.80
75719;DHT22;64340;48.534;-3.036;2024-03-08T14:28:04;17.20;57.60
75719;DHT22;64340;48.534;-3.036;2024-03-08T14:30:33;17.30;57.50
75719;DHT22;64340;48.534;-3.036;2024-03-08T14:33:04;17.50;57.30
75719;DHT22;64340;48.534;-3.036;2024-03-08T14:35:40;17.50;57.30
75719;DHT22;64340;48.534;-3.036;2024-03-08T14:38:06;17.60;57.00
75719;DHT22;64340;48.534;-3.036;2024-03-08T14:40:36;17.80;56.90
75719;DHT22;64340;48.534;-3.036;2024-03-08T14:43:06;17.80;57.00
75719;DHT22;64340;48.534;-3.036;2024-03-08T14:45:32;17.40;55.00
75719;DHT22;64340;48.534;-3.036;2024-03-08T14:47:58;17.20;55.90
75719;DHT22;64340;48.534;-3.036;2024-03-08T14:50:25;17.50;56.50
75719;DHT22;64340;48.534;-3.036;2024-03-08T14:52:53;17.80;56.50
75719;DHT22;64340;48.534;-3.036;2024-03-08T14:55:20;17.90;56.70
75719;DHT22;64340;48.534;-3.036;2024-03-08T14:57:48;18.00;56.50
75719;DHT22;64340;48.534;-3.036;2024-03-08T15:00:17;18.10;56.50
75719;DHT22;64340;48.534;-3.036;2024-03-08T15:02:54;18.10;56.60
75719;DHT22;64340;48.534;-3.036;2024-03-08T15:05:20;18.20;56.90
75719;DHT22;64340;48.534;-3.036;2024-03-08T15:07:52;18.20;56.80
75719;DHT22;64340;48.534;-3.036;2024-03-08T15:10:18;18.30;56.90
75719;DHT22;64340;48.534;-3.036;2024-03-08T15:12:46;18.30;57.00
75719;DHT22;64340;48.534;-3.036;2024-03-08T15:15:12;18.40;57.20
75719;DHT22;64340;48.534;-3.036;2024-03-08T15:17:45;18.50;57.00
75719;DHT22;64340;48.534;-3.036;2024-03-08T15:20:13;18.50;57.10
75719;DHT22;64340;48.534;-3.036;2024-03-08T15:22:51;18.50;57.30
75719;DHT22;64340;48.534;-3.036;2024-03-08T15:25:21;18.50;57.60